createdAt,value
2017-09-10T00:00:42.597Z,86.18
2017-09-10T00:01:48.534Z,86.57
2017-09-10T00:02:54.718Z,87.01
2017-09-10T00:04:00.956Z,87.20
2017-09-10T00:05:07.057Z,86.13
2017-09-10T00:06:13.370Z,85.69
2017-09-10T00:07:19.584Z,86.80
2017-09-10T00:08:25.522Z,86.91
2017-09-10T00:09:31.440Z,87.18
2017-09-10T00:10:37.643Z,87.54
2017-09-10T00:11:43.919Z,87.79
2017-09-10T00:12:50.159Z,87.62
2017-09-10T00:13:56.431Z,88.15
2017-09-10T00:15:02.426Z,88.54
2017-09-10T00:16:08.781Z,89.06
2017-09-10T00:17:15.048Z,89.38
2017-09-10T00:18:21.512Z,88.62
2017-09-10T00:19:27.713Z,88.22
2017-09-10T00:20:33.959Z,88.05
2017-09-10T00:21:40.133Z,88.35
2017-09-10T00:22:46.358Z,88.51
2017-09-10T00:23:52.610Z,88.41
2017-09-10T00:24:58.634Z,88.50
2017-09-10T00:26:04.743Z,88.59
2017-09-10T00:27:10.819Z,88.99
2017-09-10T00:28:17.862Z,88.50
2017-09-10T00:29:24.543Z,88.74
2017-09-10T00:30:30.401Z,88.50
2017-09-10T00:31:36.450Z,88.74
2017-09-10T00:32:42.751Z,88.32
2017-09-10T00:33:49.023Z,87.92
2017-09-10T00:34:56.088Z,87.47
2017-09-10T00:36:03.382Z,87.92
2017-09-10T00:37:09.658Z,88.12
2017-09-10T00:38:16.084Z,88.12
2017-09-10T00:39:22.459Z,87.52
2017-09-10T00:40:28.849Z,87.76
2017-09-10T00:41:35.001Z,87.33
2017-09-10T00:42:41.338Z,87.61
2017-09-10T00:43:47.360Z,88.13
2017-09-10T00:44:53.505Z,88.44
2017-09-10T00:45:59.627Z,88.78
2017-09-10T00:47:05.838Z,88.25
2017-09-10T00:48:11.981Z,87.77
2017-09-10T00:49:18.101Z,87.34
2017-09-10T00:50:23.485Z,87.22
2017-09-10T00:51:28.953Z,87.23
2017-09-10T00:52:34.273Z,87.18
2017-09-10T00:53:40.567Z,87.38
2017-09-10T00:54:46.062Z,87.62
2017-09-10T00:55:52.361Z,87.66
2017-09-10T00:56:58.477Z,88.19
2017-09-10T00:58:04.906Z,88.43
2017-09-10T00:59:11.026Z,88.87
2017-09-10T01:00:17.152Z,88.83
2017-09-10T01:01:23.084Z,88.78
2017-09-10T01:02:28.944Z,89.46
2017-09-10T01:03:35.984Z,90.00
2017-09-10T01:04:41.829Z,90.20
2017-09-10T01:05:47.919Z,90.37
2017-09-10T01:06:54.037Z,90.52
2017-09-10T01:08:01.211Z,90.32
2017-09-10T01:09:07.005Z,90.24
2017-09-10T01:10:12.580Z,90.18
2017-09-10T01:11:18.705Z,90.33
2017-09-10T01:12:24.448Z,90.67
2017-09-10T01:13:30.302Z,90.88
2017-09-10T01:14:36.419Z,90.99
2017-09-10T01:15:42.501Z,90.61
2017-09-10T01:16:49.313Z,89.85
2017-09-10T01:17:55.390Z,89.36
2017-09-10T01:19:01.656Z,89.18
2017-09-10T01:20:07.196Z,89.22
2017-09-10T01:21:12.813Z,89.64
2017-09-10T01:22:18.190Z,90.38
2017-09-10T01:23:24.550Z,90.72
2017-09-10T01:24:29.917Z,90.88
2017-09-10T01:25:36.112Z,91.25
2017-09-10T01:26:41.535Z,91.68
2017-09-10T01:27:47.501Z,91.42
2017-09-10T01:28:53.818Z,91.46
2017-09-10T01:29:59.877Z,91.51
2017-09-10T01:31:06.010Z,91.32
2017-09-10T01:32:12.275Z,91.21
2017-09-10T01:33:18.533Z,90.82
2017-09-10T01:34:24.777Z,91.09
2017-09-10T01:35:31.759Z,90.57
2017-09-10T01:36:41.795Z,90.72
2017-09-10T01:37:47.991Z,91.06
2017-09-10T01:38:54.267Z,91.05
2017-09-10T01:40:00.415Z,91.18
2017-09-10T01:41:06.527Z,90.98
2017-09-10T01:42:12.731Z,91.10
2017-09-10T01:43:18.831Z,90.25
2017-09-10T01:44:25.860Z,90.60
2017-09-10T01:45:32.028Z,91.08
2017-09-10T01:46:38.164Z,91.42
2017-09-10T01:47:44.251Z,91.70
2017-09-10T01:48:50.314Z,91.62
2017-09-10T01:49:56.448Z,91.61
2017-09-10T01:51:02.680Z,92.03
2017-09-10T01:52:08.833Z,92.26
2017-09-10T01:53:14.766Z,93.00
2017-09-10T01:54:21.224Z,93.00
2017-09-10T01:55:27.216Z,93.31
2017-09-10T01:56:33.408Z,94.06
2017-09-10T01:57:39.486Z,93.95
2017-09-10T01:58:45.741Z,93.58
2017-09-10T01:59:51.561Z,93.34
2017-09-10T02:00:57.133Z,93.37
2017-09-10T02:02:03.289Z,93.56
2017-09-10T02:03:09.490Z,93.49
2017-09-10T02:04:15.491Z,92.82
2017-09-10T02:05:21.526Z,92.66
2017-09-10T02:06:27.785Z,92.31
2017-09-10T02:07:33.863Z,93.05
2017-09-10T02:08:40.183Z,92.83
2017-09-10T02:09:46.288Z,92.78
2017-09-10T02:10:52.592Z,92.72
2017-09-10T02:11:58.528Z,93.08
2017-09-10T02:13:04.784Z,92.99
2017-09-10T02:14:11.188Z,93.25
2017-09-10T02:15:18.196Z,92.93
2017-09-10T02:16:25.226Z,92.78
2017-09-10T02:17:31.334Z,93.41
2017-09-10T02:18:37.527Z,93.62
2017-09-10T02:19:43.755Z,93.78
2017-09-10T02:20:49.862Z,93.67
2017-09-10T02:21:56.069Z,93.54
2017-09-10T02:23:03.152Z,93.49
2017-09-10T02:24:09.293Z,93.41
2017-09-10T02:25:15.358Z,93.67
2017-09-10T02:26:21.509Z,93.91
2017-09-10T02:27:27.844Z,94.12
2017-09-10T02:28:34.161Z,93.96
2017-09-10T02:29:40.296Z,92.92
2017-09-10T02:30:46.470Z,92.58
2017-09-10T02:31:52.725Z,92.59
2017-09-10T02:32:59.055Z,93.43
2017-09-10T02:34:06.218Z,93.56
2017-09-10T02:35:12.433Z,93.65
2017-09-10T02:36:18.493Z,93.87
2017-09-10T02:37:24.757Z,93.78
2017-09-10T02:38:30.958Z,93.45
2017-09-10T02:39:37.211Z,93.06
2017-09-10T02:40:43.450Z,92.49
2017-09-10T02:41:49.679Z,92.32
2017-09-10T02:42:55.789Z,91.79
2017-09-10T02:44:02.038Z,92.16
2017-09-10T02:45:08.182Z,92.27
2017-09-10T02:46:14.384Z,92.59
2017-09-10T02:47:21.035Z,92.37
2017-09-10T02:48:28.423Z,92.73
2017-09-10T02:49:34.656Z,92.92
2017-09-10T02:50:40.843Z,93.02
2017-09-10T02:51:47.380Z,92.86
2017-09-10T02:52:53.569Z,92.05
2017-09-10T02:53:59.775Z,92.30
2017-09-10T02:55:06.192Z,92.40
2017-09-10T02:56:12.625Z,92.51
2017-09-10T02:57:18.824Z,93.66
2017-09-10T02:58:25.267Z,93.59
2017-09-10T02:59:32.776Z,94.24
2017-09-10T03:00:39.218Z,94.07
2017-09-10T03:01:45.618Z,93.90
2017-09-10T03:02:51.875Z,93.95
2017-09-10T03:03:58.127Z,94.02
2017-09-10T03:05:04.370Z,93.71
2017-09-10T03:06:10.726Z,93.33
2017-09-10T03:07:17.095Z,93.11
2017-09-10T03:08:23.350Z,93.35
2017-09-10T03:09:29.726Z,93.53
2017-09-10T03:10:37.047Z,93.83
2017-09-10T03:11:43.202Z,93.53
2017-09-10T03:12:49.324Z,92.46
2017-09-10T03:13:56.511Z,92.16
2017-09-10T03:15:03.658Z,92.37
2017-09-10T03:16:09.782Z,92.61
2017-09-10T03:17:16.177Z,92.28
2017-09-10T03:18:22.383Z,92.54
2017-09-10T03:19:28.638Z,93.67
2017-09-10T03:20:34.789Z,93.94
2017-09-10T03:21:41.062Z,94.00
2017-09-10T03:22:47.216Z,93.96
2017-09-10T03:23:53.425Z,94.18
2017-09-10T03:24:59.792Z,94.44
2017-09-10T03:26:06.164Z,94.62
2017-09-10T03:27:12.360Z,94.15
2017-09-10T03:28:18.735Z,94.32
2017-09-10T03:29:25.299Z,94.65
2017-09-10T03:30:31.767Z,94.42
2017-09-10T03:31:38.164Z,94.73
2017-09-10T03:32:44.311Z,94.82
2017-09-10T03:33:50.808Z,95.07
2017-09-10T03:34:57.544Z,95.42
2017-09-10T03:36:03.830Z,95.70
2017-09-10T03:37:10.337Z,95.54
2017-09-10T03:38:16.732Z,95.87
2017-09-10T03:39:23.468Z,95.87
2017-09-10T03:40:31.014Z,95.88
2017-09-10T03:41:37.224Z,95.63
2017-09-10T03:42:43.377Z,95.68
2017-09-10T03:43:50.071Z,95.57
2017-09-10T03:44:56.077Z,94.95
2017-09-10T03:46:02.333Z,94.70
2017-09-10T03:47:08.513Z,95.15
2017-09-10T03:48:15.504Z,95.80
2017-09-10T03:49:21.583Z,96.43
2017-09-10T03:50:27.584Z,96.16
2017-09-10T03:51:33.742Z,96.34
2017-09-10T03:52:39.985Z,96.54
2017-09-10T03:53:46.126Z,96.60
2017-09-10T03:54:53.423Z,96.67
2017-09-10T03:56:00.724Z,96.87
2017-09-10T03:57:08.010Z,96.71
2017-09-10T03:58:15.320Z,96.80
2017-09-10T03:59:22.045Z,96.74
2017-09-10T04:00:28.696Z,96.58
2017-09-10T04:01:35.773Z,96.74
2017-09-10T04:02:43.700Z,96.72
2017-09-10T04:03:51.241Z,96.58
2017-09-10T04:04:58.467Z,96.73
2017-09-10T04:06:05.704Z,96.51
2017-09-10T04:07:13.711Z,96.53
2017-09-10T04:08:21.217Z,96.27
2017-09-10T04:09:28.775Z,96.56
2017-09-10T04:10:36.155Z,96.76
2017-09-10T04:11:43.195Z,96.75
2017-09-10T04:12:52.264Z,97.12
2017-09-10T04:14:00.155Z,97.20
2017-09-10T04:15:07.202Z,97.50
2017-09-10T04:16:14.730Z,97.24
2017-09-10T04:17:21.386Z,97.36
2017-09-10T04:18:29.696Z,98.64
2017-09-10T04:19:37.079Z,98.53
2017-09-10T04:20:44.246Z,98.40
2017-09-10T04:21:51.293Z,98.44
2017-09-10T04:22:58.727Z,98.25
2017-09-10T04:24:07.210Z,97.83
2017-09-10T04:25:16.238Z,97.94
2017-09-10T04:26:25.195Z,98.05
2017-09-10T04:27:33.614Z,98.24
2017-09-10T04:28:41.515Z,98.29
2017-09-10T04:29:49.833Z,98.15
2017-09-10T04:30:58.289Z,97.93
2017-09-10T04:32:06.185Z,96.91
2017-09-10T04:33:14.260Z,96.65
2017-09-10T04:34:21.943Z,95.75
2017-09-10T04:35:30.342Z,94.92
2017-09-10T04:36:39.192Z,95.08
2017-09-10T04:37:47.296Z,95.25
2017-09-10T04:38:54.727Z,95.59
2017-09-10T04:40:02.242Z,95.95
2017-09-10T04:41:11.268Z,96.39
2017-09-10T04:42:18.800Z,96.53
2017-09-10T04:43:28.119Z,96.86
2017-09-10T04:44:36.234Z,96.96
2017-09-10T04:45:44.683Z,97.07
2017-09-10T04:46:52.274Z,96.85
2017-09-10T04:48:00.326Z,96.75
2017-09-10T04:49:09.505Z,96.60
2017-09-10T04:50:17.624Z,96.79
2017-09-10T04:51:26.184Z,96.24
2017-09-10T04:52:35.287Z,96.67
2017-09-10T04:53:44.551Z,97.21
2017-09-10T04:54:52.281Z,97.15
2017-09-10T04:56:00.292Z,97.28
2017-09-10T04:57:09.177Z,97.02
2017-09-10T04:58:18.309Z,97.19
2017-09-10T04:59:28.308Z,96.99
2017-09-10T05:00:35.982Z,97.97
2017-09-10T05:01:46.274Z,98.06
2017-09-10T05:02:55.544Z,98.26
2017-09-10T05:04:05.270Z,97.99
2017-09-10T05:05:14.209Z,97.62
2017-09-10T05:06:23.339Z,97.50
2017-09-10T05:07:32.222Z,97.37
2017-09-10T05:08:41.199Z,97.19
2017-09-10T05:09:49.395Z,97.40
2017-09-10T05:10:58.234Z,97.38
2017-09-10T05:12:07.151Z,97.27
2017-09-10T05:13:15.164Z,97.41
2017-09-10T05:14:24.156Z,97.41
2017-09-10T05:15:34.225Z,97.35
2017-09-10T05:16:44.356Z,97.13
2017-09-10T05:17:55.422Z,97.62
2017-09-10T05:19:05.173Z,97.69
2017-09-10T05:20:15.144Z,97.71
2017-09-10T05:21:24.204Z,97.56
2017-09-10T05:22:38.168Z,97.90
2017-09-10T05:24:08.321Z,97.83
2017-09-10T05:25:22.014Z,97.68
2017-09-10T05:26:32.179Z,97.45
2017-09-10T05:27:40.301Z,96.64
2017-09-10T05:28:50.152Z,96.07
2017-09-10T05:30:00.751Z,95.98
2017-09-10T05:31:09.067Z,95.22
2017-09-10T05:32:17.084Z,94.73
2017-09-10T05:33:26.128Z,94.46
2017-09-10T05:34:34.126Z,94.05
2017-09-10T05:35:43.410Z,94.01
2017-09-10T05:36:52.505Z,93.83
2017-09-10T05:38:00.225Z,93.35
2017-09-10T05:39:10.990Z,92.69
2017-09-10T05:40:22.470Z,93.22
2017-09-10T05:41:30.028Z,92.51
2017-09-10T05:44:16.218Z,91.95
2017-09-10T05:45:26.016Z,91.97
2017-09-10T05:46:36.255Z,91.90
2017-09-10T05:47:45.259Z,91.75
2017-09-10T05:48:56.294Z,91.51
2017-09-10T05:50:06.189Z,91.64
2017-09-10T05:51:18.145Z,91.51
2017-09-10T05:52:29.238Z,91.48
2017-09-10T05:53:40.206Z,91.60
2017-09-10T05:54:50.182Z,91.19
2017-09-10T05:56:01.213Z,91.06
2017-09-10T05:57:11.210Z,90.93
2017-09-10T05:58:22.251Z,90.82
2017-09-10T05:59:32.142Z,90.92
2017-09-10T06:00:43.194Z,90.66
2017-09-10T06:01:55.185Z,90.86
2017-09-10T06:03:06.226Z,91.18
2017-09-10T06:04:16.163Z,90.95
2017-09-10T06:05:25.630Z,91.35
2017-09-10T06:06:35.137Z,91.54
2017-09-10T06:07:45.920Z,91.39
2017-09-10T06:08:58.180Z,91.76
2017-09-10T06:10:08.186Z,91.80
2017-09-10T06:11:18.116Z,91.62
2017-09-10T06:12:29.124Z,91.54
2017-09-10T06:13:39.084Z,91.06
2017-09-10T06:14:50.166Z,91.13
2017-09-10T06:16:15.422Z,90.78
2017-09-10T06:19:16.490Z,90.15
2017-09-10T06:20:26.292Z,90.39
2017-09-10T06:21:36.089Z,90.14
2017-09-10T06:22:49.037Z,90.11
2017-09-10T06:27:02.101Z,89.24
2017-09-10T06:28:12.323Z,89.05
2017-09-10T06:29:21.586Z,89.32
2017-09-10T06:30:32.134Z,89.32
2017-09-10T06:31:42.139Z,88.56
2017-09-10T06:32:52.152Z,88.04
2017-09-10T06:34:02.163Z,87.69
2017-09-10T06:35:11.388Z,87.43
2017-09-10T06:36:21.062Z,86.93
2017-09-10T06:37:29.921Z,86.27
2017-09-10T06:38:39.016Z,86.19
2017-09-10T06:39:48.079Z,85.88
2017-09-10T06:40:56.895Z,85.55
2017-09-10T06:42:05.670Z,84.76
2017-09-10T06:43:14.003Z,84.58
2017-09-10T06:44:22.023Z,84.43
2017-09-10T06:45:30.982Z,83.30
2017-09-10T06:46:39.009Z,83.53
2017-09-10T06:47:48.124Z,83.77
2017-09-10T06:48:56.936Z,84.07
2017-09-10T06:50:05.354Z,84.03
2017-09-10T06:51:12.548Z,84.42
2017-09-10T06:52:20.918Z,84.79
2017-09-10T06:53:29.019Z,84.56
2017-09-10T06:54:36.925Z,83.93
2017-09-10T06:55:44.910Z,83.54
2017-09-10T06:56:53.868Z,84.28
2017-09-10T06:58:02.073Z,84.22
2017-09-10T06:59:10.347Z,83.60
2017-09-10T07:00:18.125Z,83.25
2017-09-10T07:01:26.905Z,83.26
2017-09-10T07:02:34.971Z,83.74
2017-09-10T07:03:42.938Z,83.07
2017-09-10T07:04:51.868Z,82.99
2017-09-10T07:06:00.684Z,83.49
2017-09-10T07:07:07.879Z,83.91
2017-09-10T07:08:16.035Z,83.58
2017-09-10T07:09:23.898Z,83.97
2017-09-10T07:10:33.964Z,83.55
2017-09-10T07:11:41.933Z,83.32
2017-09-10T07:12:49.968Z,83.36
2017-09-10T07:13:56.975Z,83.71
2017-09-10T07:15:04.906Z,83.18
2017-09-10T07:16:13.968Z,83.28
2017-09-10T07:17:23.538Z,82.64
2017-09-10T07:18:31.325Z,82.25
2017-09-10T07:19:39.348Z,82.06
2017-09-10T07:20:46.863Z,80.77
2017-09-10T07:21:54.917Z,80.82
2017-09-10T07:23:02.814Z,81.26
2017-09-10T07:24:09.792Z,80.38
2017-09-10T07:25:17.922Z,80.33
2017-09-10T07:26:25.704Z,80.04
2017-09-10T07:27:32.887Z,79.21
2017-09-10T07:28:40.817Z,79.05
2017-09-10T07:29:48.505Z,79.13
2017-09-10T07:30:55.238Z,78.39
2017-09-10T07:32:03.562Z,77.92
2017-09-10T07:33:11.897Z,78.09
2017-09-10T07:34:19.759Z,77.20
2017-09-10T07:35:26.749Z,77.49
2017-09-10T07:36:34.843Z,76.94
2017-09-10T07:37:42.883Z,76.11
2017-09-10T07:38:50.265Z,75.95
2017-09-10T07:39:56.820Z,75.47
2017-09-10T07:41:05.298Z,75.51
2017-09-10T07:42:12.365Z,74.70
2017-09-10T07:43:19.763Z,75.09
2017-09-10T07:44:26.775Z,74.20
2017-09-10T07:45:35.830Z,74.71
2017-09-10T07:46:44.863Z,74.24
2017-09-10T07:47:53.845Z,74.79
2017-09-10T07:49:01.733Z,73.15
2017-09-10T07:50:10.853Z,71.69
2017-09-10T07:51:18.803Z,71.57
2017-09-10T07:52:28.958Z,71.25
2017-09-10T07:53:36.888Z,74.26
2017-09-10T07:54:46.928Z,73.16
2017-09-10T07:55:57.857Z,72.53
2017-09-10T07:57:06.884Z,71.18
2017-09-10T07:58:20.426Z,71.25
2017-09-10T07:59:33.024Z,71.77
2017-09-10T08:00:42.804Z,70.43
2017-09-10T08:01:52.918Z,71.50
2017-09-10T08:03:03.066Z,70.48
2017-09-10T08:04:13.002Z,70.68
2017-09-10T08:05:23.913Z,69.56
2017-09-10T08:06:35.034Z,70.55
2017-09-10T08:07:44.943Z,69.73
2017-09-10T08:08:57.893Z,70.75
2017-09-10T08:10:08.988Z,70.59
2017-09-10T08:11:17.966Z,70.22
2017-09-10T08:12:30.996Z,68.88
2017-09-10T08:13:43.067Z,69.23
2017-09-10T08:14:52.940Z,69.48
2017-09-10T08:16:01.796Z,68.33
2017-09-10T08:17:12.812Z,69.42
2017-09-10T08:18:23.912Z,68.28
2017-09-10T08:19:35.912Z,67.31
2017-09-10T08:22:59.793Z,66.89
2017-09-10T08:24:11.890Z,65.64
2017-09-10T08:27:22.046Z,66.00
2017-09-10T08:28:30.781Z,65.65
2017-09-10T08:29:39.900Z,65.28
2017-09-10T08:30:48.825Z,65.56
2017-09-10T08:32:10.929Z,64.54
2017-09-10T08:33:21.933Z,65.78
2017-09-10T08:34:32.885Z,67.03
2017-09-10T08:35:43.852Z,66.38
2017-09-10T08:38:40.536Z,66.95
2017-09-10T08:40:32.651Z,66.91
2017-09-10T08:42:00.937Z,65.66
2017-09-10T08:43:12.784Z,66.13
2017-09-10T08:44:23.765Z,64.92
2017-09-10T08:47:07.765Z,62.26
2017-09-10T08:50:09.618Z,61.66
2017-09-10T08:51:20.964Z,62.42
2017-09-10T08:52:36.842Z,62.59
2017-09-10T08:54:11.661Z,61.08
2017-09-10T08:55:39.506Z,60.83
2017-09-10T08:56:46.423Z,61.97
2017-09-10T08:57:54.798Z,61.39
2017-09-10T08:59:06.212Z,60.77
2017-09-10T09:06:11.953Z,64.07
2017-09-10T09:07:19.671Z,62.29
2017-09-10T09:08:28.710Z,62.09
2017-09-10T09:10:00.970Z,64.44
2017-09-10T09:11:09.707Z,62.25
2017-09-10T09:12:20.217Z,62.47
2017-09-10T09:13:33.493Z,63.02
2017-09-10T09:14:52.884Z,62.33
2017-09-10T09:16:34.352Z,64.48
2017-09-10T09:17:43.754Z,64.08
2017-09-10T09:18:54.764Z,63.66
2017-09-10T09:20:04.675Z,64.12
2017-09-10T09:21:13.810Z,63.92
2017-09-10T09:22:35.707Z,64.26
2017-09-10T09:23:46.791Z,64.87
2017-09-10T09:24:57.780Z,63.70
2017-09-10T09:26:07.965Z,62.72
2017-09-10T09:27:33.737Z,62.42
2017-09-10T09:28:44.805Z,62.98
2017-09-10T09:29:58.695Z,63.76
2017-09-10T09:31:15.601Z,62.63
2017-09-10T09:32:28.746Z,62.38
2017-09-10T09:34:03.957Z,61.28
2017-09-10T09:35:34.918Z,60.70
2017-09-10T09:36:56.979Z,59.85
2017-09-10T09:38:07.520Z,60.48
2017-09-10T09:39:21.809Z,60.48
2017-09-10T09:40:44.593Z,60.31
2017-09-10T09:42:14.507Z,61.25
2017-09-10T09:44:04.019Z,61.98
2017-09-10T09:45:40.449Z,62.91
2017-09-10T09:50:10.587Z,58.11
2017-09-10T09:51:33.488Z,57.36
2017-09-10T09:52:47.444Z,55.70
2017-09-10T09:56:35.746Z,54.08
2017-09-10T09:57:47.838Z,54.19
2017-09-10T09:59:22.407Z,55.32
2017-09-10T10:00:53.827Z,54.39
2017-09-10T10:02:29.759Z,57.12
2017-09-10T10:03:49.788Z,56.93
2017-09-10T10:05:13.538Z,56.93
2017-09-10T10:06:43.573Z,57.75
2017-09-10T10:08:10.786Z,59.20
2017-09-10T10:09:44.896Z,60.07
2017-09-10T10:11:17.981Z,60.22
2017-09-10T10:16:10.484Z,57.68
2017-09-10T10:20:54.770Z,55.67
2017-09-10T10:25:40.464Z,54.92
2017-09-10T10:26:49.808Z,56.26
2017-09-10T10:28:01.459Z,57.35
2017-09-10T10:29:21.648Z,56.97
2017-09-10T10:32:13.654Z,54.99
2017-09-10T10:33:25.821Z,54.32
2017-09-10T10:34:53.504Z,53.38
2017-09-10T10:37:46.786Z,54.95
2017-09-10T10:39:13.805Z,53.46
2017-09-10T10:41:59.225Z,54.21
2017-09-10T10:43:25.562Z,54.71
2017-09-10T10:45:00.449Z,54.70
2017-09-10T10:46:11.915Z,54.33
2017-09-10T10:49:55.435Z,55.68
2017-09-10T10:53:15.638Z,54.52
2017-09-10T10:56:10.863Z,55.06
2017-09-10T10:59:21.489Z,53.30
2017-09-10T11:00:29.232Z,54.95
2017-09-10T11:01:36.660Z,53.44
2017-09-10T11:03:14.769Z,53.68
2017-09-10T11:04:33.612Z,52.77
2017-09-10T11:05:48.646Z,51.07
2017-09-10T11:07:03.555Z,51.53
2017-09-10T11:08:24.585Z,51.60
2017-09-10T11:09:42.348Z,50.03
2017-09-10T11:11:20.312Z,49.69
2017-09-10T11:12:32.449Z,50.10
2017-09-10T11:13:54.785Z,48.69
2017-09-10T11:15:11.715Z,47.38
2017-09-10T11:16:41.195Z,46.56
2017-09-10T11:17:59.633Z,47.26
2017-09-10T11:19:40.679Z,47.66
2017-09-10T11:20:52.537Z,47.74
2017-09-10T11:22:05.593Z,46.55
2017-09-10T11:23:13.602Z,49.44
2017-09-10T11:24:22.314Z,49.30
2017-09-10T11:25:32.693Z,49.54
2017-09-10T11:28:30.323Z,49.82
2017-09-10T11:30:00.547Z,50.23
2017-09-10T11:31:31.223Z,51.37
2017-09-10T11:32:39.497Z,52.20
2017-09-10T11:34:08.610Z,54.12
2017-09-10T11:35:42.404Z,54.89
2017-09-10T11:37:18.671Z,54.08
2017-09-10T11:38:50.119Z,54.83
2017-09-10T11:40:19.392Z,55.36
2017-09-10T11:41:37.230Z,56.80
2017-09-10T11:43:09.639Z,55.46
2017-09-10T11:44:19.395Z,54.79
2017-09-10T11:45:37.415Z,54.36
2017-09-10T11:46:56.075Z,55.58
2017-09-10T11:48:05.008Z,54.63
2017-09-10T11:49:38.378Z,53.74
2017-09-10T11:50:49.493Z,54.45
2017-09-10T11:52:11.775Z,54.85
2017-09-10T11:53:22.344Z,53.64
2017-09-10T11:54:41.000Z,53.22
2017-09-10T11:55:56.650Z,53.42
2017-09-10T11:57:09.485Z,53.31
2017-09-10T11:58:22.753Z,53.29
2017-09-10T12:01:27.373Z,52.67
2017-09-10T12:02:59.147Z,52.44
2017-09-10T12:05:41.397Z,53.28
2017-09-10T12:07:16.526Z,53.22
2017-09-10T12:08:52.738Z,51.96
2017-09-10T12:10:30.653Z,51.42
2017-09-10T12:15:11.323Z,52.87
2017-09-10T12:16:34.578Z,52.13
2017-09-10T12:18:05.107Z,54.63
2017-09-10T12:19:17.707Z,54.74
2017-09-10T12:22:25.337Z,54.11
2017-09-10T12:24:03.440Z,54.51
2017-09-10T12:25:16.218Z,56.23
2017-09-10T12:26:25.191Z,55.59
2017-09-10T12:27:35.216Z,56.34
2017-09-10T12:28:58.296Z,54.41
2017-09-10T12:30:29.290Z,55.15
2017-09-10T12:35:24.254Z,53.01
2017-09-10T12:36:38.604Z,53.07
2017-09-10T12:38:27.881Z,52.75
2017-09-10T12:41:17.351Z,52.51
2017-09-10T12:42:29.937Z,51.40
2017-09-10T12:43:39.215Z,52.31
2017-09-10T12:44:55.476Z,51.47
2017-09-10T12:46:12.658Z,51.80
2017-09-10T12:47:39.951Z,52.87
2017-09-10T12:49:13.080Z,51.60
2017-09-10T12:52:38.692Z,49.83
2017-09-10T12:53:47.882Z,50.54
2017-09-10T12:55:17.284Z,51.01
2017-09-10T12:56:33.399Z,50.66
2017-09-10T12:58:13.276Z,50.81
2017-09-10T13:05:47.445Z,47.92
2017-09-10T13:07:20.307Z,48.18
2017-09-10T13:08:31.547Z,47.03
2017-09-10T13:09:58.182Z,49.39
2017-09-10T13:11:28.307Z,47.86
2017-09-10T13:12:49.188Z,47.23
2017-09-10T13:14:13.387Z,45.07
2017-09-10T13:16:59.192Z,47.35
2017-09-10T13:18:29.554Z,47.00
2017-09-10T13:19:40.475Z,45.76
2017-09-10T13:21:26.149Z,47.45
2017-09-10T13:22:53.979Z,48.52
2017-09-10T13:26:39.407Z,48.90
2017-09-10T13:28:04.197Z,49.39
2017-09-10T13:29:27.530Z,49.16
2017-09-10T13:31:05.516Z,47.19
2017-09-10T13:32:15.356Z,45.25
2017-09-10T13:33:56.211Z,45.02
2017-09-10T13:35:13.237Z,45.76
2017-09-10T13:38:36.513Z,46.21
2017-09-10T13:40:30.210Z,43.69
2017-09-10T13:41:42.346Z,43.87
2017-09-10T13:48:24.464Z,44.46
2017-09-10T13:51:34.318Z,41.99
2017-09-10T13:52:58.139Z,43.84
2017-09-10T13:54:30.999Z,43.22
2017-09-10T13:56:15.115Z,42.17
2017-09-10T13:57:30.360Z,41.58
2017-09-10T13:58:42.368Z,41.53
2017-09-10T14:00:15.423Z,43.36
2017-09-10T14:01:28.505Z,44.66
2017-09-10T14:03:02.014Z,45.37
2017-09-10T14:04:17.919Z,44.47
2017-09-10T14:05:55.800Z,43.42
2017-09-10T14:07:22.195Z,43.54
2017-09-10T14:08:44.988Z,41.29
2017-09-10T14:13:41.989Z,44.80
2017-09-10T14:14:52.611Z,44.65
2017-09-10T14:16:46.178Z,45.26
2017-09-10T14:19:36.323Z,44.28
2017-09-10T14:20:46.420Z,43.75
2017-09-10T14:22:09.116Z,43.01
2017-09-10T14:24:57.756Z,40.94
2017-09-10T14:26:33.109Z,38.84
2017-09-10T14:27:45.224Z,39.00
2017-09-10T14:31:53.230Z,39.38
2017-09-10T14:33:03.224Z,37.77
2017-09-10T14:34:14.565Z,38.39
2017-09-10T14:35:31.155Z,37.42
2017-09-10T14:36:51.166Z,37.36
2017-09-10T14:38:11.482Z,37.52
2017-09-10T14:39:51.932Z,38.40
2017-09-10T14:41:07.784Z,41.35
2017-09-10T14:42:32.265Z,41.28
2017-09-10T14:43:45.209Z,41.66
2017-09-10T14:44:58.264Z,43.10
2017-09-10T14:46:14.372Z,42.43
2017-09-10T14:47:27.217Z,42.65
2017-09-10T14:54:44.209Z,41.95
2017-09-10T14:56:00.821Z,42.67
2017-09-10T14:57:12.055Z,41.40
2017-09-10T15:02:03.336Z,41.87
2017-09-10T15:03:28.078Z,42.75
2017-09-10T15:05:08.033Z,42.24
2017-09-10T15:11:07.193Z,44.14
2017-09-10T15:12:52.817Z,41.75
2017-09-10T15:14:13.041Z,42.72
2017-09-10T15:19:24.040Z,45.68
2017-09-10T15:20:33.083Z,43.84
2017-09-10T15:21:41.229Z,42.53
2017-09-10T15:24:31.018Z,39.93
2017-09-10T15:25:46.082Z,39.05
2017-09-10T15:27:00.882Z,38.82
2017-09-10T15:29:00.998Z,36.42
2017-09-10T15:30:31.938Z,35.06
2017-09-10T15:31:40.962Z,36.01
2017-09-10T15:32:59.896Z,36.35
2017-09-10T15:36:54.954Z,39.93
2017-09-10T15:38:23.934Z,38.87
2017-09-10T15:39:33.008Z,37.37
2017-09-10T15:41:03.479Z,38.71
2017-09-10T15:42:33.211Z,38.91
2017-09-10T15:44:08.178Z,37.25
2017-09-10T15:45:39.900Z,38.79
2017-09-10T15:47:27.947Z,36.54
2017-09-10T15:48:47.204Z,35.44
2017-09-10T15:50:15.970Z,34.77
2017-09-10T15:51:59.052Z,34.89
2017-09-10T15:53:11.177Z,36.21
2017-09-10T15:54:42.884Z,38.75
2017-09-10T15:56:03.662Z,38.77
2017-09-10T15:57:27.100Z,38.18
2017-09-10T15:58:45.605Z,39.03
2017-09-10T16:02:15.080Z,39.83
2017-09-10T16:03:28.229Z,38.02
2017-09-10T16:05:07.068Z,38.26
2017-09-10T16:06:30.045Z,38.25
2017-09-10T16:10:15.886Z,43.60
2017-09-10T16:11:54.799Z,44.19
2017-09-10T16:13:26.997Z,46.23
2017-09-10T16:14:43.971Z,45.24
2017-09-10T16:16:20.953Z,46.02
2017-09-10T16:17:35.324Z,46.86
2017-09-10T16:21:06.876Z,47.04
2017-09-10T16:24:21.626Z,49.44
2017-09-10T16:25:31.121Z,48.83
2017-09-10T16:26:59.753Z,48.85
2017-09-10T16:28:28.560Z,49.27
2017-09-10T16:29:46.985Z,50.16
2017-09-10T16:34:55.116Z,50.12
2017-09-10T16:36:25.681Z,50.14
2017-09-10T16:37:45.767Z,50.57
2017-09-10T16:39:20.716Z,51.22
2017-09-10T16:40:30.928Z,51.67
2017-09-10T16:41:40.878Z,53.19
2017-09-10T16:42:51.756Z,52.28
2017-09-10T16:44:04.675Z,52.16
2017-09-10T16:45:13.969Z,52.46
2017-09-10T16:46:23.702Z,54.13
2017-09-10T16:47:33.928Z,53.14
2017-09-10T16:48:44.038Z,53.03
2017-09-10T16:50:55.659Z,53.55
2017-09-10T16:52:06.729Z,53.82
2017-09-10T16:53:16.692Z,54.30
2017-09-10T16:54:26.999Z,54.34
2017-09-10T16:55:36.915Z,54.18
2017-09-10T16:56:46.833Z,54.71
2017-09-10T16:57:57.853Z,54.86
2017-09-10T16:59:07.844Z,55.18
2017-09-10T17:00:19.971Z,55.44
2017-09-10T17:01:29.774Z,54.99
2017-09-10T17:02:38.986Z,54.83
2017-09-10T17:03:49.936Z,55.69
2017-09-10T17:04:59.792Z,55.64
2017-09-10T17:06:11.976Z,55.82
2017-09-10T17:07:22.826Z,55.36
2017-09-10T17:08:33.831Z,56.78
2017-09-10T17:09:43.908Z,56.75
2017-09-10T17:10:54.704Z,57.87
2017-09-10T17:12:26.849Z,58.19
2017-09-10T17:13:35.791Z,58.03
2017-09-10T17:14:44.819Z,57.62
2017-09-10T17:15:55.701Z,57.00
2017-09-10T17:17:06.885Z,57.54
2017-09-10T17:18:18.864Z,57.73
2017-09-10T17:19:34.168Z,58.01
2017-09-10T17:21:13.898Z,58.62
2017-09-10T17:22:28.128Z,57.66
2017-09-10T17:23:39.745Z,58.07
2017-09-10T17:24:49.860Z,58.70
2017-09-10T17:26:01.965Z,58.41
2017-09-10T17:27:13.046Z,59.41
2017-09-10T17:28:24.968Z,59.02
2017-09-10T17:29:43.019Z,60.15
2017-09-10T17:30:55.796Z,59.77
2017-09-10T17:32:08.766Z,60.06
2017-09-10T17:33:21.832Z,60.38
2017-09-10T17:34:31.780Z,60.59
2017-09-10T17:35:42.888Z,60.57
2017-09-10T17:36:53.637Z,61.06
2017-09-10T17:38:29.874Z,62.40
2017-09-10T17:39:39.971Z,62.64
2017-09-10T17:40:52.211Z,62.19
2017-09-10T17:42:04.652Z,62.69
2017-09-10T17:43:15.868Z,63.01
2017-09-10T17:44:32.867Z,62.81
2017-09-10T17:45:45.725Z,63.57
2017-09-10T17:47:24.806Z,62.81
2017-09-10T17:48:41.866Z,63.68
2017-09-10T17:51:56.975Z,67.21
2017-09-10T17:53:25.750Z,66.61
2017-09-10T17:54:35.612Z,67.14
2017-09-10T17:55:44.528Z,66.95